Latest Weather Observations for Jacup

IDW60801

Issued at 7:35 pm WST Friday 24 October 2014 (issued every 30 minutes, with the page automatically refreshed every 10 minutes)

About weather observations | Map of weather stations | Latest weather observations for WA | Other Formats
Station Details ID: 010905 Name: JACUP Lat: -33.89 Lon: 119.11 Height: 305.0 m
Data from the previous 72 hours. | See also: Recent months at Jacup
Date/Time
WST
Temp
°C
App
Temp
°C
Dew
Point
Rel
Hum
%
Delta-T
°C
Wind Press
QNH
hPa
Press
MSL
hPa
Rain
since 9 am
mm
Dir
 
Spd
km/h
Gust
km/h
Spd
kts
Gust
kts
24/07:30pm 14.0 11.1 12.4 90 0.9 E 19 30 10 16 1015.7 1015.3 0.0
24/07:00pm 14.6 12.5 12.3 86 1.3 E 15 24 8 13 1015.6 1015.2 0.0
24/06:30pm 15.8 13.6 12.2 79 2.0 E 15 24 8 13 1015.6 1015.2 0.0
24/06:00pm 17.1 14.3 12.6 75 2.5 E 19 30 10 16 1015.2 1014.8 0.0
24/05:30pm 18.2 15.3 12.9 71 3.0 ESE 20 32 11 17 1015.1 1014.7 0.0
24/05:00pm 18.9 15.5 12.6 67 3.6 ESE 22 32 12 17 1014.7 1014.3 0.0
24/04:30pm 20.1 17.2 12.8 63 4.2 ESE 20 32 11 17 1014.8 1014.4 0.0
24/04:00pm 20.6 17.5 12.1 58 4.8 ESE 20 28 11 15 1014.8 1014.4 0.0
24/03:30pm 20.8 17.6 12.0 57 5.0 E 20 28 11 15 1015.0 1014.6 0.0
24/03:00pm 22.2 21.1 11.9 52 5.9 E 9 24 5 13 1015.1 1014.7 0.0
24/02:30pm 22.0 19.9 9.9 46 6.6 ENE 11 19 6 10 1015.4 1015.0 0.0
24/02:00pm 22.2 21.1 10.0 46 6.7 NE 6 13 3 7 1015.7 1015.3 0.0
24/01:30pm 21.8 20.5 10.0 47 6.5 NE 7 15 4 8 1016.2 1015.8 0.0
24/01:00pm 20.8 18.7 9.7 49 6.0 NE 11 17 6 9 1016.6 1016.3 0.0
24/12:30pm 20.8 19.1 9.7 49 6.0 N 9 19 5 10 1016.9 1016.6 0.0
24/12:00pm 19.9 17.4 9.8 52 5.5 NNE 13 24 7 13 1017.3 1017.0 0.0
24/11:30am 18.7 16.6 9.8 56 4.8 NE 11 19 6 10 1017.9 1017.5 0.0
24/11:00am 19.2 17.3 10.5 57 4.8 NNE 11 17 6 9 1018.4 1018.0 0.0
24/10:30am 17.6 15.1 9.8 60 4.2 ENE 13 22 7 12 1018.9 1018.5 0.0
24/10:00am 17.2 14.8 10.1 63 3.8 ENE 13 20 7 11 1018.8 1018.4 0.0
24/09:30am 16.3 14.0 10.4 68 3.2 ENE 13 19 7 10 1019.0 1018.6 0.0
24/09:00am 15.9 14.4 10.4 70 2.9 E 9 17 5 9 1019.0 1018.6 0.0
24/08:30am 14.6 12.5 9.8 73 2.5 E 11 17 6 9 1019.1 1018.8 0.0
24/08:00am 14.5 12.1 9.9 74 2.4 E 13 17 7 9 1019.1 1018.8 0.0
24/07:30am 14.8 13.0 9.6 71 2.7 ESE 9 15 5 8 1018.8 1018.4 0.0
24/07:00am 14.2 11.9 9.0 71 2.7 SE 11 17 6 9 1018.7 1018.3 0.0
24/06:30am 13.7 11.9 9.6 76 2.1 S 9 13 5 7 1018.6 1018.2 0.0
24/06:00am 12.6 11.5 10.1 85 1.3 SSW 6 11 3 6 1018.6 1018.2 0.0
24/05:30am 11.7 10.0 9.9 89 0.9 SSW 9 11 5 6 1018.4 1018.0 0.0
24/05:00am 11.2 9.6 8.6 84 1.3 S 7 9 4 5 1018.3 1017.9 0.0
24/04:30am 12.7 10.0 8.8 77 2.0 S 13 19 7 10 1018.2 1017.8 0.0
24/04:00am 12.6 10.8 9.4 81 1.6 S 9 13 5 7 1017.9 1017.5 0.0
24/03:30am 12.6 10.3 9.1 79 1.8 S 11 19 6 10 1017.9 1017.5 0.0
24/03:00am 13.1 12.0 10.6 85 1.3 S 7 9 4 5 1018.1 1017.7 0.0
24/02:30am 13.0 11.8 10.4 84 1.4 SSW 7 9 4 5 1018.3 1017.9 0.0
24/02:00am 12.7 11.1 10.2 85 1.3 S 9 13 5 7 1018.2 1017.8 0.0
24/01:30am 12.9 11.3 10.3 84 1.4 SSW 9 11 5 6 1018.1 1017.7 0.0
24/01:00am 13.1 11.1 10.1 82 1.6 S 11 15 6 8 1018.1 1017.7 0.0
24/12:30am 13.4 11.4 10.2 81 1.7 SW 11 17 6 9 1018.3 1017.9 0.0
24/12:00am 13.3 11.3 10.3 82 1.6 SW 11 19 6 10 1018.3 1017.9 0.0
 
Date/Time
WST
Temp
°C
App
Temp
°C
Dew
Point
Rel
Hum
%
Delta-T
°C
Wind Press
QNH
hPa
Press
MSL
hPa
Rain
since 9 am
mm
Dir
 
Spd
km/h
Gust
km/h
Spd
kts
Gust
kts
23/11:30pm 13.5 11.2 10.5 82 1.6 SSW 13 20 7 11 1018.2 1017.8 0.0
23/11:00pm 13.4 11.1 10.6 83 1.5 SW 13 20 7 11 1018.3 1017.9 0.0
23/10:30pm 13.7 11.1 10.7 82 1.6 SW 15 24 8 13 1018.3 1017.9 0.0
23/10:00pm 14.1 11.2 11.1 82 1.6 SSW 17 26 9 14 1018.4 1018.0 0.0
23/09:30pm 14.3 11.1 11.1 81 1.7 SW 19 26 10 14 1018.4 1018.0 0.0
23/09:00pm 14.6 11.1 11.0 79 1.9 SW 20 32 11 17 1018.2 1017.8 0.0
23/08:30pm 14.7 11.5 11.1 79 1.9 SW 19 32 10 17 1017.8 1017.4 0.0
23/08:00pm 15.2 11.9 11.6 79 2.0 SW 20 30 11 16 1017.5 1017.1 0.0
23/07:30pm 15.5 12.2 11.7 78 2.1 SW 20 33 11 18 1016.9 1016.6 0.0
23/07:00pm 16.0 12.4 12.0 77 2.2 SW 22 39 12 21 1016.4 1016.1 0.0
23/06:30pm 16.9 13.9 12.0 73 2.7 SW 19 28 10 15 1015.8 1015.4 0.0
23/06:00pm 17.7 14.1 11.9 69 3.2 WSW 22 33 12 18 1015.0 1014.6 0.0
23/05:30pm 19.9 15.9 11.7 59 4.6 WSW 24 37 13 20 1014.3 1013.9 0.0
23/05:00pm 20.9 16.2 12.1 57 5.0 WSW 28 41 15 22 1013.8 1013.5 0.0
23/04:30pm 20.7 15.9 11.6 56 5.1 WSW 28 43 15 23 1013.3 1012.9 0.0
23/04:00pm 23.1 18.3 11.8 49 6.5 WSW 28 41 15 22 1012.9 1012.5 0.0
23/03:30pm 21.9 18.5 12.5 55 5.4 W 22 33 12 18 1012.7 1012.3 0.0
23/03:00pm 21.7 17.7 11.7 53 5.7 W 24 41 13 22 1012.6 1012.2 0.0
23/02:30pm 21.4 15.9 11.7 54 5.5 WSW 32 50 17 27 1012.5 1012.1 0.0
23/02:04pm 23.3 18.5 11.7 48 6.6 W 28 48 15 26 1012.1 1011.7 0.0
23/02:00pm 23.8 18.8 12.1 48 6.7 W 30 43 16 23 1012.0 1011.6 0.0
23/01:30pm 21.9 16.0 11.3 51 6.0 WSW 33 52 18 28 1011.9 1011.5 0.0
23/01:10pm 24.0 19.0 11.0 44 7.4 WSW 28 46 15 25 1011.7 1011.3 0.0
23/01:00pm 21.9 16.6 11.3 51 6.0 W 30 43 16 23 1011.8 1011.4 0.0
23/12:36pm 22.7 17.7 10.8 47 6.7 W 28 46 15 25 1011.7 1011.3 0.0
23/12:30pm 23.0 18.5 11.4 48 6.6 W 26 41 14 22 1011.7 1011.3 0.0
23/12:00pm 23.4 17.4 10.8 45 7.1 W 33 52 18 28 1011.6 1011.2 0.0
23/11:50am 22.6 17.1 10.4 46 6.8 W 30 48 16 26 1011.5 1011.1 0.0
23/11:30am 22.7 16.7 10.8 47 6.7 W 33 50 18 27 1011.7 1011.3 0.0
23/11:00am 21.3 15.9 10.8 51 5.8 W 30 50 16 27 1011.8 1011.4 0.0
23/10:30am 21.8 16.9 11.2 51 6.0 WNW 28 50 15 27 1011.9 1011.5 0.0
23/10:00am 20.1 14.2 11.1 56 5.0 WNW 33 52 18 28 1011.9 1011.5 0.0
23/09:30am 19.6 14.4 11.6 60 4.5 W 30 50 16 27 1012.0 1011.6 0.0
23/09:00am 17.9 12.7 11.7 67 3.4 WNW 30 50 16 27 1011.8 1011.4 1.0
23/08:48am 17.2 12.0 11.7 70 3.0 W 30 48 16 26 1011.9 1011.5 1.0
23/08:30am 16.9 12.1 11.8 72 2.8 WNW 28 44 15 24 1011.9 1011.5 1.0
23/08:01am 16.3 10.8 11.7 74 2.5 W 32 50 17 27 1011.8 1011.4 1.0
23/08:00am 16.5 11.5 12.1 75 2.4 WNW 30 46 16 25 1011.8 1011.4 1.0
23/07:30am 15.9 11.8 12.6 81 1.8 W 26 44 14 24 1011.6 1011.2 1.0
23/07:15am 15.7 11.1 12.3 80 1.9 WNW 28 46 15 25 1011.4 1011.0 1.0
23/07:00am 15.6 11.8 12.5 82 1.7 WNW 24 39 13 21 1011.3 1010.9 1.0
23/06:30am 14.7 12.3 12.7 88 1.1 WNW 17 24 9 13 1011.2 1010.8 1.0
23/06:00am 12.9 10.6 11.6 92 0.7 WNW 15 26 8 14 1011.3 1010.9 1.0
23/05:30am 13.0 10.8 12.1 94 0.5 WNW 15 22 8 12 1011.1 1010.7 1.0
23/05:00am 13.0 10.8 12.1 94 0.5 WNW 15 24 8 13 1010.2 1009.8 1.0
23/04:30am 13.4 11.3 12.5 94 0.5 W 15 24 8 13 1009.8 1009.4 1.0
23/04:00am 13.5 10.6 12.4 93 0.6 WNW 19 32 10 17 1010.4 1010.0 1.0
23/03:30am 14.1 11.7 12.7 91 0.8 WNW 17 26 9 14 1010.4 1010.0 1.0
23/03:00am 14.8 12.2 13.3 91 0.8 WNW 19 33 10 18 1010.3 1009.9 1.0
23/02:30am 15.0 12.0 13.7 92 0.7 WNW 22 39 12 21 1010.1 1009.7 1.0
23/02:00am 14.9 12.8 13.6 92 0.7 WNW 17 28 9 15 1010.0 1009.6 1.0
23/01:30am 15.8 12.8 14.7 93 0.6 WNW 24 37 13 20 1009.9 1009.5 1.0
23/01:00am 15.7 14.2 15.4 98 0.2 WNW 17 24 9 13 1009.4 1009.0 1.0
23/12:30am 14.8 13.7 14.3 97 0.3 WNW 13 24 7 13 1009.2 1008.8 1.0
23/12:00am 14.8 14.8 14.3 97 0.3 N 7 9 4 5 1009.2 1008.8 1.0
 
Date/Time
WST
Temp
°C
App
Temp
°C
Dew
Point
Rel
Hum
%
Delta-T
°C
Wind Press
QNH
hPa
Press
MSL
hPa
Rain
since 9 am
mm
Dir
 
Spd
km/h
Gust
km/h
Spd
kts
Gust
kts
22/11:30pm 15.4 15.4 15.1 98 0.2 NE 9 13 5 7 1009.5 1009.1 1.0
22/11:00pm 15.8 14.4 15.5 98 0.2 E 17 24 9 13 1009.8 1009.4 1.0
22/10:30pm 16.0 14.7 15.7 98 0.2 ESE 17 26 9 14 1010.4 1010.0 1.0
22/10:00pm 15.9 13.9 15.6 98 0.2 ESE 20 28 11 15 1010.8 1010.4 1.0
22/09:30pm 15.9 13.5 15.4 97 0.3 ESE 22 32 12 17 1011.5 1011.1 1.0
22/09:00pm 16.0 13.3 15.5 97 0.3 ESE 24 33 13 18 1011.8 1011.4 1.0
22/08:30pm 15.9 13.1 15.3 96 0.4 ESE 24 32 13 17 1012.0 1011.6 0.6
22/08:00pm 15.9 13.5 15.3 96 0.4 SE 22 30 12 16 1012.3 1011.9 0.6
22/07:30pm 16.0 13.1 15.2 95 0.5 ESE 24 32 13 17 1012.2 1011.8 0.6
22/07:00pm 16.2 15.0 15.1 93 0.6 S 15 22 8 12 1013.4 1013.0 0.2
22/06:30pm 17.2 13.9 15.0 87 1.3 E 26 35 14 19 1012.0 1011.6 0.0
22/06:00pm 18.0 14.1 14.5 80 2.0 E 28 37 15 20 1011.3 1010.9 0.0
22/05:30pm 19.1 14.9 14.6 75 2.6 E 30 41 16 22 1011.4 1011.0 0.0
22/05:00pm 20.5 16.7 14.8 70 3.4 E 28 39 15 21 1011.6 1011.2 0.0
22/04:30pm 22.1 17.8 15.5 66 4.0 E 32 43 17 23 1012.3 1011.9 0.0
22/04:00pm 22.6 19.1 15.4 64 4.4 ESE 28 37 15 20 1013.2 1012.8 0.0
22/03:30pm 23.5 20.4 15.5 60 4.9 ESE 26 41 14 22 1013.7 1013.4 0.0
22/03:00pm 23.8 20.3 15.6 60 5.0 ESE 28 35 15 19 1014.4 1014.0 0.0
22/02:30pm 24.2 21.5 15.7 59 5.2 ESE 24 33 13 18 1014.8 1014.4 0.0
22/02:00pm 25.7 23.2 15.1 52 6.5 E 22 33 12 18 1015.3 1014.9 0.0
22/01:30pm 25.8 22.3 13.3 46 7.4 E 24 33 13 18 1015.8 1015.4 0.0
22/01:00pm 25.6 22.9 13.5 47 7.2 ENE 20 26 11 14 1016.6 1016.3 0.0
22/12:30pm 25.1 22.7 13.9 49 6.7 E 19 37 10 20 1017.2 1016.9 0.0
22/12:00pm 23.5 20.4 13.4 53 5.9 ENE 22 32 12 17 1017.8 1017.4 0.0
22/11:30am 23.1 19.7 13.8 55 5.5 ENE 24 35 13 19 1018.3 1017.9 0.0
22/11:00am 22.1 17.9 13.5 58 5.0 ENE 28 41 15 22 1018.5 1018.1 0.0
22/10:30am 21.1 16.7 13.0 60 4.7 ENE 28 39 15 21 1018.9 1018.5 0.0
22/10:00am 20.1 15.8 13.1 64 4.0 ENE 28 43 15 23 1019.3 1019.0 0.0
22/09:30am 19.0 15.2 12.5 66 3.7 ENE 24 39 13 21 1020.0 1019.7 0.0
22/09:00am 17.3 13.4 12.0 71 2.9 ENE 24 35 13 19 1020.5 1020.2 0.0
22/08:30am 16.0 11.5 11.4 74 2.5 ENE 26 37 14 20 1020.7 1020.4 0.0
22/08:00am 15.6 12.0 11.8 78 2.1 E 22 35 12 19 1021.1 1020.7 0.0
22/07:30am 14.6 10.1 11.4 81 1.7 E 26 37 14 20 1021.3 1020.9 0.0
22/07:00am 13.3 9.2 11.4 88 1.0 E 24 33 13 18 1021.2 1020.8 0.0
22/06:30am 12.6 8.0 11.0 90 0.9 ENE 26 39 14 21 1021.6 1021.2 0.0
22/06:00am 12.5 8.2 10.9 90 0.8 E 24 37 13 20 1021.6 1021.2 0.0
22/05:30am 12.4 8.9 10.8 90 0.8 E 20 37 11 20 1021.5 1021.1 0.0
22/05:00am 12.4 9.1 11.0 91 0.7 E 19 26 10 14 1021.3 1020.9 0.0
22/04:30am 12.3 8.8 10.9 91 0.7 E 20 32 11 17 1021.4 1021.0 0.0
22/04:00am 12.2 8.9 10.9 92 0.7 ENE 19 28 10 15 1021.3 1020.9 0.0
22/03:30am 12.2 8.3 10.8 91 0.7 ENE 22 33 12 18 1021.3 1020.9 0.0
22/03:00am 12.3 8.4 10.9 91 0.7 E 22 32 12 17 1021.4 1021.0 0.0
22/02:30am 12.2 8.2 10.6 90 0.8 E 22 30 12 16 1021.7 1021.3 0.0
22/02:00am 12.3 8.9 10.5 89 0.9 ENE 19 28 10 15 1022.2 1021.9 0.0
22/01:30am 12.5 8.9 10.7 89 1.0 ENE 20 30 11 16 1022.0 1021.7 0.0
22/01:00am 12.6 8.7 10.8 89 1.0 ENE 22 33 12 18 1021.8 1021.4 0.0
22/12:30am 12.6 8.3 10.7 88 1.0 ENE 24 32 13 17 1022.0 1021.7 0.0
22/12:00am 12.8 8.9 10.7 87 1.1 ENE 22 32 12 17 1022.5 1022.2 0.0
 
Date/Time
WST
Temp
°C
App
Temp
°C
Dew
Point
Rel
Hum
%
Delta-T
°C
Wind Press
QNH
hPa
Press
MSL
hPa
Rain
since 9 am
mm
Dir
 
Spd
km/h
Gust
km/h
Spd
kts
Gust
kts
21/11:30pm 12.9 9.4 11.0 88 1.0 E 20 30 11 16 1022.9 1022.6 0.0
21/11:00pm 12.7 9.4 10.8 88 1.0 E 19 26 10 14 1023.1 1022.8 0.0
21/10:30pm 12.3 9.7 10.7 90 0.8 E 15 20 8 11 1023.4 1023.1 0.0
21/10:00pm 11.5 9.1 10.1 91 0.7 ESE 13 17 7 9 1023.5 1023.2 0.0
21/09:30pm 10.6 8.7 9.2 91 0.7 E 9 11 5 6 1023.8 1023.5 0.0
21/09:00pm 11.0 9.2 9.4 90 0.8 ESE 9 11 5 6 1024.5 1024.1 0.0
21/08:30pm 11.0 8.7 9.1 88 1.0 ESE 11 15 6 8 1024.6 1024.2 0.0
21/08:00pm 11.4 8.7 9.1 86 1.2 ESE 13 17 7 9 1024.2 1023.9 0.0

Other Formats:

Comma delimited format used in spreadsheet applications
http://www.bom.gov.au/fwo/IDW60801/IDW60801.95636.axf

JavaScript Object Notation format (JSON) in row-major order
http://www.bom.gov.au/fwo/IDW60801/IDW60801.95636.json